Time;durP1;ratioP1;P1;durP2;ratioP2;P2;SDS_P1;SDS_P2;PMS_P1;PMS_P2;Temp;Humidity;BMP_temperature;BMP_pressure;BME280_temperature;BME280_humidity;BME280_pressure;Samples;Min_cycle;Max_cycle;Signal;HPM_P1;HPM_P2
2022/06/28 00:00:27;;;;;;;0.5;0.5;;;;;;;17.98;95.27148;941.9905;;;;
2022/06/28 00:02:53;;;;;;;0.5;0.5;;;;;;;17.96;94.79199;942.1036;;;;
2022/06/28 00:05:37;;;;;;;1.1;0.6;;;;;;;18.05;94.83203;942.0891;;;;
2022/06/28 00:08:14;;;;;;;0.6;0.6;;;;;;;18.19;93.66895;942.1241;;;;
2022/06/28 00:10:51;;;;;;;0.6;0.5;;;;;;;18.18;93.26758;942.1502;;;;
2022/06/28 00:13:25;;;;;;;0.9;0.4;;;;;;;18.07;92.88672;942.1887;;;;
2022/06/28 00:16:09;;;;;;;0.9;0.5;;;;;;;18.2;92.30957;942.1749;;;;
2022/06/28 00:18:46;;;;;;;1.6;0.5;;;;;;;18.25;91.90234;942.1697;;;;
2022/06/28 00:21:24;;;;;;;0.7;0.4;;;;;;;18.21;92.17188;942.1635;;;;
2022/06/28 00:24:01;;;;;;;1;0.7;;;;;;;18.27;92.56836;942.1806;;;;
2022/06/28 00:26:39;;;;;;;0.4;0.4;;;;;;;18.21;93.74023;942.2014;;;;
2022/06/28 00:29:16;;;;;;;0.5;0.5;;;;;;;18.24;93.16699;942.2947;;;;
2022/06/28 00:31:54;;;;;;;0.7;0.4;;;;;;;18.2;93.16895;942.3256;;;;
2022/06/28 00:34:21;;;;;;;0.4;0.4;;;;;;;18.11;94.60059;942.3422;;;;
2022/06/28 00:36:46;;;;;;;0.4;0.4;;;;;;;18.2;94.48242;942.2684;;;;
2022/06/28 00:39:15;;;;;;;0.6;0.6;;;;;;;18.14;94.43555;942.2853;;;;
2022/06/28 00:41:40;;;;;;;1;0.3;;;;;;;18.24;92.37695;942.3156;;;;
2022/06/28 00:44:09;;;;;;;1.2;0.4;;;;;;;18.34;92.34961;942.3386;;;;
2022/06/28 00:46:35;;;;;;;1.4;0.3;;;;;;;18.37;93.13574;942.3413;;;;
2022/06/28 00:48:59;;;;;;;1.2;0.4;;;;;;;18.44;93.31152;942.335;;;;
2022/06/28 00:51:27;;;;;;;0.8;0.4;;;;;;;18.44;93.59082;942.3649;;;;
2022/06/28 00:53:52;;;;;;;0.7;0.4;;;;;;;18.5;92.02246;942.4252;;;;
2022/06/28 00:56:18;;;;;;;0.3;0.3;;;;;;;18.41;93.14355;942.4875;;;;
2022/06/28 00:58:43;;;;;;;2.6;0.8;;;;;;;18.33;92.29102;942.5764;;;;
2022/06/28 01:01:08;;;;;;;0.8;0.5;;;;;;;18.36;91.47168;942.5695;;;;
2022/06/28 01:03:33;;;;;;;0.5;0.5;;;;;;;18.35;91.05078;942.6472;;;;
2022/06/28 01:05:59;;;;;;;0.6;0.4;;;;;;;18.21;92.10156;942.6931;;;;
2022/06/28 01:08:25;;;;;;;0.6;0.6;;;;;;;18.14;91.63574;942.6819;;;;
2022/06/28 01:10:51;;;;;;;1.3;0.6;;;;;;;18.07;92.41016;942.6875;;;;
2022/06/28 01:13:16;;;;;;;1.1;0.6;;;;;;;17.88;93.35742;942.7032;;;;
2022/06/28 01:15:45;;;;;;;1.7;0.6;;;;;;;17.92;92.80762;942.7495;;;;
2022/06/28 01:18:10;;;;;;;0.5;0.5;;;;;;;17.96;92.65332;942.6508;;;;
2022/06/28 01:20:37;;;;;;;1.4;0.7;;;;;;;17.88;93.16992;942.6372;;;;
2022/06/28 01:23:02;;;;;;;0.9;0.7;;;;;;;17.94;92.77637;942.5809;;;;
2022/06/28 01:25:30;;;;;;;0.5;0.5;;;;;;;17.99;92.34668;942.5931;;;;
2022/06/28 01:27:55;;;;;;;0.8;0.6;;;;;;;18.03;91.38867;942.6196;;;;
2022/06/28 01:30:21;;;;;;;1.4;0.7;;;;;;;18.03;91.63477;942.663;;;;
2022/06/28 01:32:46;;;;;;;1.3;0.7;;;;;;;18.08;90.71484;942.6609;;;;
2022/06/28 01:35:15;;;;;;;0.7;0.6;;;;;;;18.08;90.41406;942.6746;;;;
2022/06/28 01:37:44;;;;;;;1.2;0.6;;;;;;;18.11;89.74414;942.6339;;;;
2022/06/28 01:40:09;;;;;;;1.2;0.7;;;;;;;17.96;89.67969;942.6355;;;;
2022/06/28 01:42:36;;;;;;;1.1;0.6;;;;;;;17.93;90.39453;942.7269;;;;
2022/06/28 01:45:02;;;;;;;1.3;0.7;;;;;;;18.01;90.3623;942.7533;;;;
2022/06/28 01:47:31;;;;;;;0.8;0.6;;;;;;;18.09;89.56836;942.7205;;;;
2022/06/28 01:49:55;;;;;;;1.5;0.7;;;;;;;18.11;88.94434;942.783;;;;
2022/06/28 01:52:22;;;;;;;0.7;0.6;;;;;;;18.09;88.9873;942.7374;;;;
2022/06/28 01:54:47;;;;;;;0.8;0.5;;;;;;;18.1;88.10645;942.7461;;;;
2022/06/28 01:57:14;;;;;;;2.5;0.8;;;;;;;18.11;88.5957;942.7097;;;;
2022/06/28 01:59:39;;;;;;;0.6;0.6;;;;;;;18.07;88.07715;942.6778;;;;
2022/06/28 02:02:08;;;;;;;0.9;0.9;;;;;;;17.99;88.28223;942.7084;;;;
2022/06/28 02:04:33;;;;;;;1.2;0.9;;;;;;;17.76;88.21191;942.8066;;;;
2022/06/28 02:06:59;;;;;;;1.2;0.7;;;;;;;17.54;90.77832;942.8172;;;;
2022/06/28 02:09:24;;;;;;;1.6;0.8;;;;;;;17.47;92.25;942.8477;;;;
2022/06/28 02:11:50;;;;;;;1.3;0.8;;;;;;;17.51;92.2002;942.8143;;;;
2022/06/28 02:14:15;;;;;;;1.3;1.2;;;;;;;17.4;94.04297;942.7353;;;;
2022/06/28 02:16:46;;;;;;;1.2;0.9;;;;;;;17.33;93.71582;942.8061;;;;
2022/06/28 02:19:15;;;;;;;0.8;0.8;;;;;;;17.35;93.23242;942.6811;;;;
2022/06/28 02:21:40;;;;;;;1;0.9;;;;;;;17.3;93.21191;942.6783;;;;
2022/06/28 02:24:07;;;;;;;1.1;0.8;;;;;;;17.1;94.42188;942.72;;;;
2022/06/28 02:26:33;;;;;;;1.5;0.8;;;;;;;17.03;94.06738;942.6901;;;;
2022/06/28 02:29:01;;;;;;;1.9;0.8;;;;;;;17.1;94.25684;942.7145;;;;
2022/06/28 02:31:26;;;;;;;1.2;0.8;;;;;;;17.15;93.2832;942.6778;;;;
2022/06/28 02:33:52;;;;;;;1.3;0.8;;;;;;;17.24;93.92871;942.7811;;;;
2022/06/28 02:41:07;;;;;;;1.3;0.8;;;;;;;17.57;93.46484;942.8242;;;;
2022/06/28 02:43:32;;;;;;;0.8;0.8;;;;;;;17.6;92.76465;942.8674;;;;
2022/06/28 02:45:59;;;;;;;1.4;1.2;;;;;;;17.75;92.26074;942.9172;;;;
2022/06/28 02:48:24;;;;;;;2.8;1;;;;;;;17.75;92.54102;942.9888;;;;
2022/06/28 02:50:52;;;;;;;1.9;1.1;;;;;;;17.71;93.07715;942.9877;;;;
2022/06/28 02:53:17;;;;;;;2;1;;;;;;;17.81;92.9707;943.0542;;;;
2022/06/28 02:55:46;;;;;;;2.4;1.1;;;;;;;17.76;93.39063;943.0104;;;;
2022/06/28 02:58:16;;;;;;;2.2;1.2;;;;;;;17.71;93.14746;943.027;;;;
2022/06/28 03:00:44;;;;;;;1.9;1.1;;;;;;;17.76;93.2959;943.1136;;;;
2022/06/28 03:03:10;;;;;;;1.8;0.9;;;;;;;17.7;93.27051;943.0594;;;;
2022/06/28 03:05:36;;;;;;;1.5;1;;;;;;;17.71;93.5625;943.0739;;;;
2022/06/28 03:08:01;;;;;;;1.2;1.1;;;;;;;17.7;93.43359;943.1794;;;;
2022/06/28 03:10:26;;;;;;;2.4;1;;;;;;;17.79;92.18945;943.2083;;;;
2022/06/28 03:12:51;;;;;;;1.9;1.1;;;;;;;17.84;91.87305;943.2508;;;;
2022/06/28 03:15:19;;;;;;;1.1;1;;;;;;;17.81;91.50781;943.1565;;;;
2022/06/28 03:17:45;;;;;;;1.1;0.9;;;;;;;17.87;91.27734;943.2012;;;;
2022/06/28 03:20:14;;;;;;;1.2;0.9;;;;;;;17.93;90.87012;943.2128;;;;
2022/06/28 03:22:39;;;;;;;2.1;0.9;;;;;;;17.85;90.44727;943.299;;;;
2022/06/28 03:25:06;;;;;;;1;0.9;;;;;;;17.79;90.95898;943.2751;;;;
2022/06/28 03:27:31;;;;;;;2.4;0.9;;;;;;;17.87;92.4502;943.3011;;;;
2022/06/28 03:29:57;;;;;;;1.2;1.1;;;;;;;17.87;92.14844;943.2802;;;;
2022/06/28 03:32:22;;;;;;;1.6;0.9;;;;;;;17.87;92.16016;943.3334;;;;
2022/06/28 03:34:52;;;;;;;2.5;0.9;;;;;;;17.97;92.0625;943.3599;;;;
2022/06/28 03:37:17;;;;;;;2.2;1.2;;;;;;;17.96;92.21387;943.3566;;;;
2022/06/28 03:39:43;;;;;;;1.5;1;;;;;;;17.94;92.82324;943.3303;;;;
2022/06/28 03:42:08;;;;;;;1.8;1.3;;;;;;;17.84;93.53613;943.3273;;;;
2022/06/28 03:44:35;;;;;;;1.3;1.1;;;;;;;17.58;94.53418;943.3475;;;;
2022/06/28 03:47:00;;;;;;;1.7;0.9;;;;;;;17.67;93.81055;943.3348;;;;
2022/06/28 03:49:27;;;;;;;1.1;1;;;;;;;17.78;93.34766;943.247;;;;
2022/06/28 03:51:52;;;;;;;2.6;1;;;;;;;17.83;93.20703;943.3371;;;;
2022/06/28 03:54:18;;;;;;;2.3;1;;;;;;;17.98;93.11133;943.3524;;;;
2022/06/28 03:56:43;;;;;;;1.6;0.9;;;;;;;17.85;93.58203;943.282;;;;
2022/06/28 03:59:11;;;;;;;1.7;0.9;;;;;;;17.75;94.54785;943.278;;;;
2022/06/28 04:02:31;;;;;;;5.2;1;;;;;;;17.59;95.59375;943.2999;;;;
2022/06/28 04:04:56;;;;;;;1.1;1;;;;;;;17.69;95.11621;943.3212;;;;
2022/06/28 04:07:25;;;;;;;1.3;1;;;;;;;17.63;94.01172;943.3466;;;;
2022/06/28 04:09:50;;;;;;;1.3;1.2;;;;;;;17.63;94.04688;943.3812;;;;
2022/06/28 04:12:18;;;;;;;1.2;1.1;;;;;;;17.72;94.00586;943.2349;;;;
2022/06/28 04:14:43;;;;;;;3.3;1;;;;;;;17.64;94.60547;943.3239;;;;
2022/06/28 04:17:08;;;;;;;1.1;0.8;;;;;;;17.61;95.01758;943.3078;;;;
2022/06/28 04:19:33;;;;;;;1.5;1.4;;;;;;;17.58;95.4873;943.3878;;;;
2022/06/28 04:21:59;;;;;;;1.8;1;;;;;;;17.51;95.72461;943.3739;;;;
2022/06/28 04:24:26;;;;;;;2;1.2;;;;;;;17.57;94.71973;943.2629;;;;
2022/06/28 04:26:51;;;;;;;1.6;0.9;;;;;;;17.65;94.50293;943.3374;;;;
2022/06/28 04:29:18;;;;;;;1.1;0.9;;;;;;;17.71;94.50488;943.4515;;;;
2022/06/28 04:31:43;;;;;;;1.3;1;;;;;;;17.72;94.50488;943.3669;;;;
2022/06/28 04:34:09;;;;;;;2.9;1.1;;;;;;;17.7;94.83984;943.3453;;;;
2022/06/28 04:36:34;;;;;;;1.7;1.1;;;;;;;17.71;94.96973;943.2397;;;;
2022/06/28 04:39:00;;;;;;;1.3;1.2;;;;;;;17.78;94.36816;943.2068;;;;
2022/06/28 04:41:25;;;;;;;2.2;1.1;;;;;;;17.88;94.08691;943.2817;;;;
2022/06/28 04:43:55;;;;;;;1.3;1.1;;;;;;;17.96;93.32813;943.3067;;;;
2022/06/28 04:46:18;;;;;;;1.2;1.1;;;;;;;18.03;93.37695;943.2595;;;;
2022/06/28 04:48:44;;;;;;;2.2;1.2;;;;;;;17.94;93.90527;943.2916;;;;
2022/06/28 04:51:13;;;;;;;1.3;1.2;;;;;;;17.95;93.35938;943.3189;;;;
2022/06/28 04:53:35;;;;;;;1.5;1.4;;;;;;;18;92.70898;943.295;;;;
2022/06/28 04:56:02;;;;;;;1.5;1.4;;;;;;;18.05;92.32324;943.2939;;;;
2022/06/28 04:58:27;;;;;;;2.4;1.3;;;;;;;18.12;91.49023;943.3391;;;;
2022/06/28 05:00:54;;;;;;;1.5;1.2;;;;;;;18.15;90.77539;943.2985;;;;
2022/06/28 05:03:19;;;;;;;2.6;1.4;;;;;;;18.07;91.42285;943.3081;;;;
2022/06/28 05:05:49;;;;;;;2.4;1.3;;;;;;;18.16;91.62598;943.1806;;;;
2022/06/28 05:08:13;;;;;;;2.7;1.3;;;;;;;18.26;91.27637;943.228;;;;
2022/06/28 05:10:40;;;;;;;1.2;1.1;;;;;;;18.3;90.7373;943.2219;;;;
2022/06/28 05:13:05;;;;;;;1;1;;;;;;;18.3;90.78418;943.1509;;;;
2022/06/28 05:15:38;;;;;;;1.3;1.2;;;;;;;18.36;91.77148;942.9905;;;;
2022/06/28 05:18:07;;;;;;;3.3;1;;;;;;;18.55;89.5459;942.9883;;;;
2022/06/28 05:20:32;;;;;;;1.9;1.1;;;;;;;18.6;90.60156;942.8538;;;;
2022/06/28 05:22:57;;;;;;;2;1;;;;;;;18.71;89.40234;942.7617;;;;
2022/06/28 05:25:25;;;;;;;1;0.9;;;;;;;18.85;88.82617;942.6266;;;;
2022/06/28 05:27:51;;;;;;;1.7;1.1;;;;;;;18.98;87.76953;942.6432;;;;
2022/06/28 05:30:16;;;;;;;1.7;1;;;;;;;19.09;87.38379;942.5845;;;;
2022/06/28 05:32:42;;;;;;;1.5;1.2;;;;;;;19.18;86.51465;942.5394;;;;
2022/06/28 05:35:07;;;;;;;1.4;1.2;;;;;;;19.29;86.7959;942.4417;;;;
2022/06/28 05:37:33;;;;;;;2.4;1.3;;;;;;;19.36;85.71289;942.3638;;;;
2022/06/28 05:39:58;;;;;;;2.3;1.4;;;;;;;19.5;84.30762;942.2977;;;;
2022/06/28 05:42:25;;;;;;;0.9;0.9;;;;;;;19.61;82.5791;942.1722;;;;
2022/06/28 05:44:50;;;;;;;2;1.1;;;;;;;19.78;81.91211;942.1409;;;;
2022/06/28 05:47:17;;;;;;;1.3;1.2;;;;;;;20.14;78.4873;942.2094;;;;
2022/06/28 05:49:42;;;;;;;1;0.9;;;;;;;20.28;78.57324;942.1345;;;;
2022/06/28 05:52:08;;;;;;;3.1;1.1;;;;;;;20.36;80.0459;941.9226;;;;
2022/06/28 05:54:34;;;;;;;1.2;1;;;;;;;20.49;80.38574;942.1217;;;;
2022/06/28 05:57:00;;;;;;;3.3;1.3;;;;;;;20.81;78.36426;942.2197;;;;
2022/06/28 05:59:26;;;;;;;2;1.1;;;;;;;21.08;75.46289;942.1595;;;;
2022/06/28 06:01:55;;;;;;;1.9;1;;;;;;;21.2;74.94434;942.1509;;;;
2022/06/28 06:04:18;;;;;;;1.3;1.1;;;;;;;21.14;76.75879;942.1921;;;;
2022/06/28 06:06:45;;;;;;;2.4;0.9;;;;;;;21.08;73.67285;942.1434;;;;
2022/06/28 06:09:10;;;;;;;1.5;1.2;;;;;;;21.26;75.21289;942.0073;;;;
2022/06/28 06:11:36;;;;;;;1.8;1.2;;;;;;;21.48;72.10059;941.6909;;;;
2022/06/28 06:14:01;;;;;;;2.1;1.1;;;;;;;21.84;70.6709;941.8484;;;;
2022/06/28 06:16:26;;;;;;;0.8;0.8;;;;;;;22.2;69.7207;941.8005;;;;
2022/06/28 06:18:53;;;;;;;1.9;1.1;;;;;;;22.14;69.17285;941.5472;;;;
2022/06/28 06:21:18;;;;;;;0.9;0.9;;;;;;;22.76;66.32129;941.5363;;;;
2022/06/28 06:23:45;;;;;;;2.4;1;;;;;;;23.77;62.95508;941.7247;;;;
2022/06/28 06:26:10;;;;;;;2.5;0.8;;;;;;;24.63;60.6123;941.7004;;;;
2022/06/28 06:28:39;;;;;;;1.5;1;;;;;;;24.3;62.30957;941.6184;;;;
2022/06/28 06:31:04;;;;;;;2.3;1;;;;;;;23.26;62.35352;941.6199;;;;
2022/06/28 06:33:32;;;;;;;1.1;1;;;;;;;22.75;64.59375;941.5602;;;;
2022/06/28 06:35:56;;;;;;;1.4;0.8;;;;;;;22.28;66.13086;941.4333;;;;
2022/06/28 06:38:23;;;;;;;1.4;1.2;;;;;;;22.05;69.28613;941.3806;;;;
2022/06/28 06:40:48;;;;;;;1.4;1.2;;;;;;;21.88;69.51855;941.3469;;;;
2022/06/28 06:43:13;;;;;;;1.9;1.3;;;;;;;21.65;71.42578;941.3127;;;;
2022/06/28 06:45:38;;;;;;;2;1.3;;;;;;;21.35;73.50586;941.293;;;;
2022/06/28 06:48:05;;;;;;;1.7;1.3;;;;;;;21.12;74.41797;941.1786;;;;
2022/06/28 06:50:30;;;;;;;3.2;1.3;;;;;;;20.64;75.77344;941.077;;;;
2022/06/28 06:52:57;;;;;;;1.1;0.9;;;;;;;20.22;77.7666;941.0673;;;;
2022/06/28 06:55:22;;;;;;;1.3;0.8;;;;;;;20.1;78.57422;941.0467;;;;
2022/06/28 06:57:47;;;;;;;1.3;1;;;;;;;19.85;78.64648;941.0472;;;;
2022/06/28 07:00:16;;;;;;;1.9;1.1;;;;;;;20;77.44824;941.0656;;;;
2022/06/28 07:02:38;;;;;;;2.1;1;;;;;;;20.07;78.84961;941.0513;;;;
2022/06/28 07:05:04;;;;;;;1.4;1.3;;;;;;;20.22;78.65332;941.162;;;;
2022/06/28 07:07:28;;;;;;;2.8;1.1;;;;;;;20.36;79.53223;941.155;;;;
2022/06/28 07:09:56;;;;;;;2.2;0.9;;;;;;;20.52;79.75977;941.2173;;;;
2022/06/28 07:12:21;;;;;;;1.2;1;;;;;;;20.48;78.77148;941.2253;;;;
2022/06/28 07:14:48;;;;;;;1.6;0.8;;;;;;;20.38;78.29688;941.2062;;;;
2022/06/28 07:17:13;;;;;;;1.4;0.9;;;;;;;20.33;76.8418;941.1847;;;;
2022/06/28 07:19:40;;;;;;;1.2;1.1;;;;;;;20.46;78.17285;941.2397;;;;
2022/06/28 07:22:05;;;;;;;1.3;1;;;;;;;20.57;77.73535;941.2678;;;;
2022/06/28 07:24:32;;;;;;;0.9;0.9;;;;;;;20.6;76.46582;941.2639;;;;
2022/06/28 07:26:57;;;;;;;1.8;1.2;;;;;;;20.5;78.58789;941.3106;;;;
2022/06/28 07:29:26;;;;;;;4.4;1.1;;;;;;;20.53;78.83789;941.4031;;;;
2022/06/28 07:31:51;;;;;;;2.1;1.2;;;;;;;20.59;76.80469;941.4179;;;;
2022/06/28 07:34:19;;;;;;;1.8;1.4;;;;;;;20.3;75.58691;941.5009;;;;
2022/06/28 07:36:44;;;;;;;1.8;1.3;;;;;;;20.2;78.5332;941.5967;;;;
2022/06/28 07:39:09;;;;;;;1.8;1.1;;;;;;;20.18;78.4375;941.6003;;;;
2022/06/28 07:41:35;;;;;;;1.4;1.1;;;;;;;20.18;77.69043;941.6417;;;;
2022/06/28 07:44:02;;;;;;;2.1;1.3;;;;;;;20.49;77.6875;941.6906;;;;
2022/06/28 07:46:27;;;;;;;1.4;1.1;;;;;;;20.81;75.69727;941.7615;;;;
2022/06/28 07:48:53;;;;;;;1.3;1.2;;;;;;;21.04;75.80762;941.788;;;;
2022/06/28 07:53:43;;;;;;;2.4;1.2;;;;;;;21.02;75.21777;941.8483;;;;
2022/06/28 07:56:08;;;;;;;1.2;1.1;;;;;;;21;74.37305;941.9482;;;;
2022/06/28 07:58:34;;;;;;;1.5;1.4;;;;;;;21.04;73.49023;941.8893;;;;
2022/06/28 08:00:59;;;;;;;1.4;1.3;;;;;;;21.03;74.9043;941.8289;;;;
2022/06/28 08:03:27;;;;;;;3;1.4;;;;;;;20.92;75.83301;941.8248;;;;
2022/06/28 08:05:52;;;;;;;1.4;1.3;;;;;;;21.05;74.56934;941.8292;;;;
2022/06/28 08:08:18;;;;;;;2.2;1.3;;;;;;;20.71;76.28613;941.8653;;;;
2022/06/28 08:10:43;;;;;;;1.9;1.3;;;;;;;20.94;76.24609;941.8161;;;;
2022/06/28 08:13:08;;;;;;;1.4;1.3;;;;;;;20.89;75.80469;941.8109;;;;
2022/06/28 08:15:34;;;;;;;1.5;1.4;;;;;;;20.9;74.00586;941.8456;;;;
2022/06/28 08:18:00;;;;;;;1.6;1.5;;;;;;;21.06;74.82617;941.824;;;;
2022/06/28 08:20:27;;;;;;;2.3;1.7;;;;;;;21.16;73.96582;941.8677;;;;
2022/06/28 08:22:53;;;;;;;2.1;1.6;;;;;;;21.27;72.81543;941.824;;;;
2022/06/28 08:25:20;;;;;;;2.7;1.4;;;;;;;21.39;73.58398;941.7983;;;;
2022/06/28 08:27:45;;;;;;;1.6;1.5;;;;;;;21.36;72.57324;941.7861;;;;
2022/06/28 08:30:10;;;;;;;1.7;1.3;;;;;;;21.7;71.97266;941.8066;;;;
2022/06/28 08:32:38;;;;;;;3.6;1.3;;;;;;;21.75;72.57813;941.8133;;;;
2022/06/28 08:35:03;;;;;;;1.4;1.3;;;;;;;22.41;71.05664;941.825;;;;
2022/06/28 08:37:30;;;;;;;1.8;1.5;;;;;;;22.95;69.94336;941.8465;;;;
2022/06/28 08:39:55;;;;;;;2;1.3;;;;;;;23.13;66.66992;941.8848;;;;
2022/06/28 08:42:23;;;;;;;2.5;1.2;;;;;;;23.05;66.24707;941.8354;;;;
2022/06/28 08:44:48;;;;;;;3;1.5;;;;;;;23.01;65.2666;941.796;;;;
2022/06/28 08:47:13;;;;;;;1.7;1.4;;;;;;;23;65.52344;941.7327;;;;
2022/06/28 08:49:42;;;;;;;1.3;1.2;;;;;;;22.79;66.23145;941.7463;;;;
2022/06/28 08:52:07;;;;;;;1.7;1.1;;;;;;;22.65;65.74219;941.8003;;;;
2022/06/28 08:54:33;;;;;;;1.6;1.4;;;;;;;22.49;66.33984;941.7791;;;;
2022/06/28 08:56:58;;;;;;;1.5;1.4;;;;;;;22.37;67.45996;941.7744;;;;
2022/06/28 08:59:26;;;;;;;1.6;1.4;;;;;;;22.35;67.80859;941.7216;;;;
2022/06/28 09:01:51;;;;;;;3.1;1.7;;;;;;;22.14;69.96875;941.6781;;;;
2022/06/28 09:04:20;;;;;;;2;1.8;;;;;;;22.23;69.03223;941.7317;;;;
2022/06/28 09:06:45;;;;;;;2;1.6;;;;;;;21.85;69.62988;941.715;;;;
2022/06/28 09:09:12;;;;;;;2.5;1.5;;;;;;;21.93;70.1582;941.6902;;;;
2022/06/28 09:11:37;;;;;;;1.5;1.4;;;;;;;22.07;70.13379;941.6613;;;;
2022/06/28 09:14:02;;;;;;;2.6;1.7;;;;;;;22.24;69.45801;941.6703;;;;
2022/06/28 09:16:30;;;;;;;1.8;1.6;;;;;;;22.31;69.45605;941.683;;;;
2022/06/28 09:18:55;;;;;;;1.5;1.4;;;;;;;22.21;70.07324;941.7342;;;;
2022/06/28 09:21:21;;;;;;;1.7;1.6;;;;;;;22.1;70.2207;941.7213;;;;
2022/06/28 09:23:46;;;;;;;2.5;1.5;;;;;;;21.8;72.34082;941.5223;;;;
2022/06/28 09:26:11;;;;;;;2.5;1.8;;;;;;;21.88;72.23633;941.5909;;;;
2022/06/28 09:28:37;;;;;;;2;1.7;;;;;;;21.98;71.11621;941.6116;;;;
2022/06/28 09:31:02;;;;;;;1.8;1.7;;;;;;;22.12;69.25;941.587;;;;
2022/06/28 09:33:29;;;;;;;75;28.4;;;;;;;22.21;72.99219;941.5097;;;;
2022/06/28 09:35:54;;;;;;;2.9;1.9;;;;;;;22.23;70.14648;941.3602;;;;
2022/06/28 09:38:21;;;;;;;29.6;12.3;;;;;;;22.36;69.79102;941.2969;;;;
2022/06/28 09:40:47;;;;;;;8.6;3.7;;;;;;;22.47;68.89453;941.2643;;;;
2022/06/28 09:43:13;;;;;;;2.5;1.9;;;;;;;22.48;67.86328;941.2097;;;;
2022/06/28 09:45:38;;;;;;;2.8;1.8;;;;;;;22.42;68.61621;941.2073;;;;
2022/06/28 09:48:03;;;;;;;1.9;1.7;;;;;;;22.3;68.17578;941.1373;;;;
2022/06/28 09:50:29;;;;;;;1.9;1.7;;;;;;;22.27;69.5791;941.1146;;;;
2022/06/28 09:52:55;;;;;;;2;1.8;;;;;;;22.45;67.77734;941.1181;;;;
2022/06/28 09:55:20;;;;;;;3.4;1.7;;;;;;;22.66;67.57422;941.0905;;;;
2022/06/28 09:57:47;;;;;;;1.5;1.4;;;;;;;22.71;66.73535;941.0736;;;;
2022/06/28 10:00:11;;;;;;;3.3;1.5;;;;;;;22.57;68.24121;941.0242;;;;
2022/06/28 10:02:37;;;;;;;1.6;1.5;;;;;;;22.71;67.99219;941.0726;;;;
2022/06/28 10:05:02;;;;;;;1.5;1.4;;;;;;;22.67;69.27734;941.1339;;;;
2022/06/28 10:07:29;;;;;;;1.6;1.5;;;;;;;22.71;69.88184;941.0914;;;;
2022/06/28 10:09:54;;;;;;;1.6;1.5;;;;;;;22.81;69.65137;941.0744;;;;
2022/06/28 10:15:04;;;;;;;1.8;1.6;;;;;;;23.41;66.7002;941.0686;;;;
2022/06/28 10:17:10;;;;;;;2.3;1.7;;;;;;;23.09;68.79102;941.0282;;;;
2022/06/28 10:19:35;;;;;;;1.9;1.7;;;;;;;22.91;66.93164;940.9407;;;;
2022/06/28 10:22:10;;;;;;;2.2;2;;;;;;;22.84;67.60059;940.9116;;;;
2022/06/28 10:24:30;;;;;;;1.8;1.7;;;;;;;22.53;68.68164;940.8103;;;;
2022/06/28 10:26:56;;;;;;;2.3;1.9;;;;;;;22.96;67.19629;940.9814;;;;
2022/06/28 10:29:23;;;;;;;2.3;1.9;;;;;;;22.91;67.75391;941.0122;;;;
2022/06/28 10:32:01;;;;;;;2.2;2;;;;;;;22.14;71.57422;940.9568;;;;
2022/06/28 10:34:26;;;;;;;2.5;2.1;;;;;;;22.25;70.58496;940.9059;;;;
2022/06/28 10:36:51;;;;;;;2.1;1.7;;;;;;;21.71;72.24414;940.8431;;;;
2022/06/28 10:39:17;;;;;;;2.3;2;;;;;;;21.78;73.24023;940.7455;;;;
2022/06/28 10:41:42;;;;;;;3.3;1.8;;;;;;;21.69;72.41504;940.7191;;;;
2022/06/28 10:44:07;;;;;;;2.3;2.1;;;;;;;21.43;73.66113;940.7935;;;;
2022/06/28 10:46:34;;;;;;;2.6;1.8;;;;;;;21.58;73.01953;940.8589;;;;
2022/06/28 10:48:59;;;;;;;2.4;2.2;;;;;;;21.67;71.9668;940.7935;;;;
2022/06/28 10:51:24;;;;;;;2.5;2;;;;;;;21.69;73.96289;940.7075;;;;
2022/06/28 10:53:51;;;;;;;3;2.2;;;;;;;21.74;74.55566;940.5847;;;;
2022/06/28 10:56:16;;;;;;;2.3;2.1;;;;;;;21.5;75.04297;940.5281;;;;
2022/06/28 10:58:43;;;;;;;2.2;2;;;;;;;21.68;73.49121;940.5248;;;;
2022/06/28 11:01:08;;;;;;;2.2;2;;;;;;;21.59;74.83496;940.6205;;;;
2022/06/28 11:03:36;;;;;;;2.8;1.9;;;;;;;21.46;76.95508;940.7391;;;;
2022/06/28 11:06:00;;;;;;;1.9;1.8;;;;;;;21.44;74.77539;940.8207;;;;
2022/06/28 11:08:25;;;;;;;2.1;1.9;;;;;;;21.36;74.04785;940.9125;;;;
2022/06/28 11:10:50;;;;;;;3.2;2.1;;;;;;;21.28;74.45508;940.8656;;;;
2022/06/28 11:13:18;;;;;;;2.2;2;;;;;;;21.17;75.9209;940.8073;;;;
2022/06/28 11:15:43;;;;;;;2.3;2.1;;;;;;;21.01;77.07617;940.8574;;;;
2022/06/28 11:18:08;;;;;;;2.2;1.9;;;;;;;20.9;78.30762;940.738;;;;
2022/06/28 11:20:34;;;;;;;2.7;2.5;;;;;;;20.5;80.08203;940.6862;;;;
2022/06/28 11:23:00;;;;;;;2.8;2.3;;;;;;;20.38;82.67773;940.5446;;;;
2022/06/28 11:27:19;;;;;;;2.7;2.5;;;;;;;20.35;82.68262;940.4086;;;;
2022/06/28 11:27:52;;;;;;;3.5;2.4;;;;;;;20.52;80.50684;940.5198;;;;
2022/06/28 11:30:20;;;;;;;3.2;2.4;;;;;;;20.61;79.26172;940.8315;;;;
2022/06/28 11:32:46;;;;;;;4.6;2.9;;;;;;;20.45;80.19043;940.9763;;;;
2022/06/28 11:35:10;;;;;;;3.1;2.8;;;;;;;20.47;79.95996;940.8973;;;;
2022/06/28 11:37:38;;;;;;;2.6;2.4;;;;;;;20.43;82.60254;940.663;;;;
2022/06/28 11:40:03;;;;;;;2.5;2.3;;;;;;;20.37;83.41016;940.5722;;;;
2022/06/28 11:42:30;;;;;;;3.4;3.1;;;;;;;20.47;84.29297;940.6926;;;;
2022/06/28 11:44:55;;;;;;;3.5;2.2;;;;;;;20.4;82.91504;940.8943;;;;
2022/06/28 11:47:22;;;;;;;5.3;2.3;;;;;;;20.21;83.48633;940.9364;;;;
2022/06/28 11:49:47;;;;;;;2.9;2.4;;;;;;;20.19;84.21875;940.8641;;;;
2022/06/28 11:52:12;;;;;;;2.5;2.3;;;;;;;20.25;85.89844;940.7523;;;;
2022/06/28 11:54:37;;;;;;;2.7;2.5;;;;;;;20.24;86.17676;940.7356;;;;
2022/06/28 11:57:03;;;;;;;3.6;2.7;;;;;;;20.13;85.78027;940.7825;;;;
2022/06/28 11:59:28;;;;;;;3.5;2.8;;;;;;;20.05;86.66504;940.764;;;;
2022/06/28 12:01:54;;;;;;;3.9;2.9;;;;;;;19.86;87.17383;940.722;;;;
2022/06/28 12:04:21;;;;;;;3.9;2.9;;;;;;;19.65;88.66016;940.7902;;;;
2022/06/28 12:06:47;;;;;;;3.4;3.1;;;;;;;19.54;90.50488;940.9261;;;;
2022/06/28 12:09:14;;;;;;;3.5;3;;;;;;;19.58;90.46582;940.9617;;;;
2022/06/28 12:11:41;;;;;;;3.9;3.4;;;;;;;19.44;90.51758;940.8981;;;;
2022/06/28 12:14:05;;;;;;;4.5;3.2;;;;;;;19.63;90.73145;940.8867;;;;
2022/06/28 12:16:33;;;;;;;3.8;3.4;;;;;;;19.79;90.70703;940.7539;;;;
2022/06/28 12:18:59;;;;;;;4;3.5;;;;;;;19.9;90.25098;940.6548;;;;
2022/06/28 12:21:23;;;;;;;6.4;4;;;;;;;19.9;90.01758;940.7542;;;;
2022/06/28 12:23:50;;;;;;;5.2;3.9;;;;;;;19.88;90.21191;940.8709;;;;
2022/06/28 12:26:15;;;;;;;5.1;4;;;;;;;19.93;89.0918;941.0355;;;;
2022/06/28 12:28:40;;;;;;;4;3.6;;;;;;;19.92;89.4375;941.1047;;;;
2022/06/28 12:31:05;;;;;;;4.6;3.7;;;;;;;19.9;89.57422;941.3484;;;;
2022/06/28 12:33:34;;;;;;;4.4;4;;;;;;;19.88;90.29395;941.4514;;;;
2022/06/28 12:35:59;;;;;;;3.8;3.5;;;;;;;19.89;89.8291;941.4116;;;;
2022/06/28 12:38:26;;;;;;;4.2;3.8;;;;;;;19.79;89.94824;941.2841;;;;
2022/06/28 12:40:51;;;;;;;3.7;3.3;;;;;;;19.48;92.63477;941.1389;;;;
2022/06/28 12:43:16;;;;;;;3.8;3.4;;;;;;;19.41;95.22949;940.8864;;;;
2022/06/28 12:45:41;;;;;;;3.7;3.3;;;;;;;19.32;93.70898;940.6669;;;;
2022/06/28 12:48:07;;;;;;;4.6;3.5;;;;;;;19.34;93.56348;940.6082;;;;
2022/06/28 12:50:32;;;;;;;4.2;3.7;;;;;;;19.45;93.5498;940.2365;;;;
2022/06/28 12:52:58;;;;;;;4.4;3.6;;;;;;;19.46;90.3584;939.9648;;;;
2022/06/28 12:55:23;;;;;;;4.8;3.9;;;;;;;19.14;93.41406;939.9469;;;;
2022/06/28 12:57:51;;;;;;;5.4;4.1;;;;;;;18.82;94.47461;940.2288;;;;
2022/06/28 13:00:16;;;;;;;4.7;4;;;;;;;18.81;94.45117;940.3733;;;;
2022/06/28 13:02:44;;;;;;;4.5;4.1;;;;;;;18.94;93.80273;940.4526;;;;
2022/06/28 13:05:14;;;;;;;4.8;4.1;;;;;;;19.07;93.45898;940.3995;;;;
2022/06/28 13:07:41;;;;;;;5;4.4;;;;;;;19.01;95.43652;940.3883;;;;
2022/06/28 13:10:08;;;;;;;6.1;4.6;;;;;;;18.81;97.19727;940.4006;;;;
2022/06/28 13:12:34;;;;;;;5.3;3.9;;;;;;;18.92;96.73047;940.2537;;;;
2022/06/28 13:14:59;;;;;;;4.8;4;;;;;;;19.03;95.625;940.1752;;;;
2022/06/28 13:17:24;;;;;;;4.1;3.7;;;;;;;19.1;94.98828;939.9978;;;;
2022/06/28 13:19:49;;;;;;;3.7;3;;;;;;;19.13;93.08691;939.9036;;;;
2022/06/28 13:22:16;;;;;;;4;3;;;;;;;19.22;93.45508;939.7628;;;;
2022/06/28 13:24:41;;;;;;;3.5;2.8;;;;;;;19.08;92.58789;939.8513;;;;
2022/06/28 13:27:07;;;;;;;5.3;3.9;;;;;;;19.24;92.46875;939.8821;;;;
2022/06/28 13:29:32;;;;;;;3.8;3.5;;;;;;;19.23;93.67773;939.7813;;;;
2022/06/28 13:31:58;;;;;;;4.7;3.5;;;;;;;19.35;94.04102;939.6205;;;;
2022/06/28 13:34:23;;;;;;;4.8;3.3;;;;;;;19.36;94.67383;939.4628;;;;
2022/06/28 13:36:49;;;;;;;3.4;3.1;;;;;;;19.48;93.03027;939.1447;;;;
2022/06/28 13:39:14;;;;;;;4.3;3.2;;;;;;;19.45;92.32813;939.3373;;;;
2022/06/28 13:41:40;;;;;;;4.5;3.2;;;;;;;19.17;93.59473;939.5645;;;;
2022/06/28 13:44:06;;;;;;;3.9;3.5;;;;;;;18.77;95.3125;939.6359;;;;
2022/06/28 13:46:37;;;;;;;4;3.6;;;;;;;18.96;95.91406;939.7333;;;;
2022/06/28 13:49:03;;;;;;;4.8;4.1;;;;;;;19.02;96.42773;939.7037;;;;
2022/06/28 13:51:31;;;;;;;4.2;3.6;;;;;;;18.68;97.74902;939.8401;;;;
2022/06/28 13:53:53;;;;;;;5.8;3.9;;;;;;;18.64;98.55273;939.8078;;;;
2022/06/28 13:56:19;;;;;;;4.5;3.6;;;;;;;18.62;98.78125;939.9714;;;;
2022/06/28 13:58:46;;;;;;;6.8;3.6;;;;;;;18.63;99.08789;940.1531;;;;
2022/06/28 14:01:13;;;;;;;5.1;3.6;;;;;;;18.58;98.55273;940.1486;;;;
2022/06/28 14:03:38;;;;;;;4.7;3.6;;;;;;;18.5;98.6416;940.0993;;;;
2022/06/28 14:06:06;;;;;;;3.8;3.3;;;;;;;18.5;98.0459;939.8744;;;;
2022/06/28 14:08:31;;;;;;;4.1;3.1;;;;;;;18.58;96.76172;939.8398;;;;
2022/06/28 14:10:57;;;;;;;3.8;2.8;;;;;;;18.62;95.68945;939.7449;;;;
2022/06/28 14:13:23;;;;;;;3.2;2.9;;;;;;;18.74;95.7832;939.6672;;;;
2022/06/28 14:15:55;;;;;;;3.5;3;;;;;;;18.74;97.54004;939.6494;;;;
2022/06/28 14:18:21;;;;;;;4.4;3.3;;;;;;;18.68;98.85449;939.8434;;;;
2022/06/28 14:20:46;;;;;;;5.1;3.7;;;;;;;18.59;99.75098;939.9058;;;;
2022/06/28 14:23:11;;;;;;;4.3;3.5;;;;;;;18.61;98.90723;939.8851;;;;
2022/06/28 14:25:42;;;;;;;5.3;3.4;;;;;;;18.61;99.16309;939.9997;;;;
2022/06/28 14:28:08;;;;;;;4.9;3.6;;;;;;;18.52;99.08496;940.0264;;;;
2022/06/28 14:30:32;;;;;;;4.3;3.4;;;;;;;18.53;99.6123;940.0722;;;;